Time;durP1;ratioP1;P1;durP2;ratioP2;P2;SDS_P1;SDS_P2;PMS_P1;PMS_P2;Temp;Humidity;BMP_temperature;BMP_pressure;BME280_temperature;BME280_humidity;BME280_pressure;Samples;Min_cycle;Max_cycle;Signal;HPM_P1;HPM_P2
2022/09/24 00:02:00;;;;;;;4.65;2.88;;;18.50;68.60;;;;;;6246420;23;20008;-87
2022/09/24 00:04:26;;;;;;;3.95;3.13;;;18.50;68.60;;;;;;6246039;23;20105;-87
2022/09/24 00:06:53;;;;;;;6.47;3.45;;;18.50;68.50;;;;;;6246028;23;20008;-86
2022/09/24 00:09:20;;;;;;;6.22;3.08;;;18.50;68.40;;;;;;6219674;23;20030;-86
2022/09/24 00:11:48;;;;;;;4.88;3.60;;;18.50;68.20;;;;;;6246352;23;20067;-86
2022/09/24 00:14:14;;;;;;;4.97;3.60;;;18.50;68.30;;;;;;6246881;23;20000;-88
2022/09/24 00:16:42;;;;;;;5.80;3.40;;;18.40;68.10;;;;;;6247479;23;20008;-87
2022/09/24 00:19:09;;;;;;;8.07;3.78;;;18.40;68.20;;;;;;6246676;23;20004;-88
2022/09/24 00:21:36;;;;;;;5.07;3.50;;;18.50;68.30;;;;;;6246932;23;20000;-88
2022/09/24 00:24:07;;;;;;;5.13;3.40;;;18.50;68.10;;;;;;6246857;23;20403;-87
2022/09/24 00:26:50;;;;;;;4.63;3.40;;;18.50;68.10;;;;;;6246318;23;20007;-86
2022/09/24 00:29:25;;;;;;;5.93;4.03;;;18.50;68.10;;;;;;6247225;23;20407;-88
2022/09/24 00:31:52;;;;;;;5.15;3.50;;;18.60;68.10;;;;;;6246843;23;20000;-88
2022/09/24 00:34:19;;;;;;;8.38;5.32;;;18.60;68.00;;;;;;6246275;23;20311;-87
2022/09/24 00:36:45;;;;;;;5.93;3.58;;;18.60;67.90;;;;;;6245374;23;20158;-87
2022/09/24 00:39:12;;;;;;;6.32;4.05;;;18.60;67.90;;;;;;6220960;23;20011;-90
2022/09/24 00:41:39;;;;;;;7.97;3.10;;;18.60;68.00;;;;;;6247037;23;20004;-89
2022/09/24 00:44:46;;;;;;;4.95;3.78;;;18.60;67.70;;;;;;6218868;23;20008;-89
2022/09/24 00:47:35;;;;;;;5.75;3.95;;;18.60;67.50;;;;;;6220106;23;20009;-90
2022/09/24 00:50:12;;;;;;;6.40;3.78;;;18.70;67.70;;;;;;6246880;23;20004;-91
2022/09/24 00:52:44;;;;;;;5.47;3.30;;;18.70;67.50;;;;;;6246162;23;20006;-85
2022/09/24 00:55:10;;;;;;;6.00;4.00;;;18.70;67.30;;;;;;6245193;23;20008;-86
2022/09/24 00:57:38;;;;;;;8.82;4.22;;;18.70;67.10;;;;;;6244827;23;20000;-85
2022/09/24 01:00:06;;;;;;;5.00;3.65;;;18.60;66.70;;;;;;6246307;23;20000;-85
2022/09/24 01:02:36;;;;;;;6.05;3.38;;;18.70;66.90;;;;;;6245124;23;20004;-87
2022/09/24 01:05:02;;;;;;;6.60;3.97;;;18.60;66.80;;;;;;6245135;23;20016;-88
2022/09/24 01:07:28;;;;;;;7.47;3.78;;;18.70;67.00;;;;;;6244710;23;20000;-87
2022/09/24 01:09:54;;;;;;;5.75;3.50;;;18.70;67.00;;;;;;6218621;23;20352;-86
2022/09/24 01:12:35;;;;;;;7.20;3.35;;;18.70;67.00;;;;;;6245118;23;19996;-85
2022/09/24 01:15:30;;;;;;;4.95;3.22;;;18.70;67.30;;;;;;6245097;23;20006;-85
2022/09/24 01:18:27;;;;;;;6.05;3.90;;;18.70;66.80;;;;;;6245362;23;20023;-84
2022/09/24 01:21:08;;;;;;;5.15;2.83;;;18.70;66.70;;;;;;6235822;23;20088;-82
2022/09/24 01:23:55;;;;;;;4.22;3.10;;;18.70;66.60;;;;;;6245243;23;20007;-83
2022/09/24 01:26:43;;;;;;;6.25;3.35;;;18.80;66.80;;;;;;6245505;23;20011;-85
2022/09/24 01:29:30;;;;;;;7.18;4.32;;;18.70;66.60;;;;;;6245788;23;20004;-86
2022/09/24 01:32:19;;;;;;;7.72;3.65;;;18.60;65.00;;;;;;6245537;23;20005;-85
2022/09/24 01:35:22;;;;;;;6.30;4.18;;;18.60;65.90;;;;;;6218399;23;20004;-84
2022/09/24 01:37:55;;;;;;;6.45;4.10;;;18.60;65.00;;;;;;6229791;23;20000;-85
2022/09/24 01:40:25;;;;;;;5.80;3.88;;;18.60;65.70;;;;;;6218694;23;20422;-85
2022/09/24 01:42:53;;;;;;;4.40;3.22;;;18.70;66.00;;;;;;6244941;23;20000;-86
2022/09/24 01:45:20;;;;;;;5.40;3.50;;;18.70;65.90;;;;;;6245755;23;20423;-86
2022/09/24 01:47:47;;;;;;;4.80;3.10;;;18.80;65.90;;;;;;6246460;23;20057;-88
2022/09/24 01:50:16;;;;;;;5.90;3.60;;;18.80;66.10;;;;;;6219109;23;20008;-88
2022/09/24 01:52:58;;;;;;;5.90;3.45;;;18.80;66.10;;;;;;6246731;23;20007;-88
2022/09/24 01:55:27;;;;;;;5.85;3.40;;;18.90;66.00;;;;;;6246402;23;20007;-89
2022/09/24 01:58:00;;;;;;;4.05;3.50;;;18.90;65.80;;;;;;6219286;23;20008;-88
2022/09/24 02:00:26;;;;;;;5.70;3.67;;;18.90;65.80;;;;;;6246832;23;20004;-88
2022/09/24 02:02:52;;;;;;;4.47;3.05;;;18.90;65.70;;;;;;6245947;23;20035;-86
2022/09/24 02:05:23;;;;;;;4.13;2.97;;;18.90;65.80;;;;;;6245332;23;20012;-86
2022/09/24 02:07:52;;;;;;;5.72;3.10;;;18.90;66.00;;;;;;6245329;23;20011;-87
2022/09/24 02:10:19;;;;;;;4.15;2.90;;;18.90;66.10;;;;;;6218987;23;20040;-86
2022/09/24 02:12:55;;;;;;;5.88;3.47;;;18.90;66.00;;;;;;6246278;23;19996;-86
2022/09/24 02:15:31;;;;;;;4.40;3.38;;;18.90;66.00;;;;;;6218868;23;20030;-83
2022/09/24 02:18:01;;;;;;;4.72;3.20;;;18.90;65.90;;;;;;6244757;23;20062;-84
2022/09/24 02:20:29;;;;;;;4.68;3.63;;;18.90;65.90;;;;;;6245066;23;20299;-84
2022/09/24 02:22:56;;;;;;;5.78;3.38;;;18.90;66.10;;;;;;6218997;23;20007;-86
2022/09/24 02:25:29;;;;;;;4.38;3.45;;;18.90;66.10;;;;;;6245427;23;20048;-85
2022/09/24 02:27:55;;;;;;;6.65;3.60;;;18.90;66.20;;;;;;6218211;23;20001;-85
2022/09/24 02:30:21;;;;;;;4.50;3.22;;;18.90;66.10;;;;;;6245597;23;20083;-88
2022/09/24 02:32:48;;;;;;;6.13;3.13;;;18.90;66.00;;;;;;6246595;23;20031;-87
2022/09/24 02:35:14;;;;;;;5.50;4.25;;;18.90;66.10;;;;;;6246692;23;19997;-87
2022/09/24 02:37:43;;;;;;;4.85;3.20;;;18.90;66.20;;;;;;6246065;23;20008;-90
2022/09/24 02:40:12;;;;;;;6.90;3.78;;;18.90;66.10;;;;;;6247296;23;20015;-91
2022/09/24 02:42:39;;;;;;;6.20;3.88;;;18.90;66.40;;;;;;6247506;23;20450;-90
2022/09/24 02:45:06;;;;;;;9.50;3.50;;;18.90;66.60;;;;;;6220575;23;20008;-91
2022/09/24 02:47:32;;;;;;;4.75;3.60;;;18.90;66.70;;;;;;6219861;23;20005;-89
2022/09/24 02:49:58;;;;;;;3.85;3.20;;;18.90;66.70;;;;;;6247070;23;19996;-91
2022/09/24 02:52:23;;;;;;;5.88;3.38;;;18.90;67.00;;;;;;6247747;23;20084;-94
2022/09/24 02:54:49;;;;;;;5.90;3.80;;;18.90;67.00;;;;;;6219767;23;20000;-89
2022/09/24 02:57:17;;;;;;;3.97;3.58;;;18.90;67.10;;;;;;6219673;23;20047;-89
2022/09/24 02:59:43;;;;;;;5.53;3.58;;;18.90;67.20;;;;;;6246520;23;20004;-89
2022/09/24 03:02:09;;;;;;;5.63;3.72;;;18.90;67.30;;;;;;6246692;23;20008;-90
2022/09/24 03:04:34;;;;;;;6.68;3.97;;;18.80;67.50;;;;;;6247396;23;20062;-90
2022/09/24 03:07:00;;;;;;;4.85;3.35;;;18.80;67.60;;;;;;6249133;23;20008;-91
2022/09/24 03:09:26;;;;;;;4.55;3.65;;;18.80;67.50;;;;;;6248834;23;19996;-88
2022/09/24 03:11:51;;;;;;;3.88;3.10;;;18.80;67.50;;;;;;6248070;23;20487;-88
2022/09/24 03:14:17;;;;;;;6.10;3.30;;;18.80;67.40;;;;;;6220596;23;20004;-88
2022/09/24 03:16:43;;;;;;;3.67;3.28;;;18.80;67.40;;;;;;6248162;23;20000;-87
2022/09/24 03:19:09;;;;;;;4.97;3.50;;;18.80;67.40;;;;;;6248014;23;20004;-90
2022/09/24 03:21:35;;;;;;;4.93;3.55;;;18.80;67.40;;;;;;6247938;23;20356;-89
2022/09/24 03:24:02;;;;;;;7.22;2.97;;;18.80;67.80;;;;;;6247585;23;20005;-87
2022/09/24 03:26:28;;;;;;;3.72;3.10;;;18.80;67.30;;;;;;6246757;23;20004;-88
2022/09/24 03:28:54;;;;;;;6.38;3.60;;;18.80;67.10;;;;;;6247395;23;20044;-92
2022/09/24 03:31:23;;;;;;;4.05;3.45;;;18.80;67.20;;;;;;6249004;23;20000;-90
2022/09/24 03:33:49;;;;;;;3.92;2.85;;;18.80;67.50;;;;;;6248028;23;20366;-91
2022/09/24 03:36:19;;;;;;;4.10;2.95;;;18.70;67.30;;;;;;6246731;23;20437;-88
2022/09/24 03:38:46;;;;;;;4.28;3.42;;;18.70;67.30;;;;;;6246400;23;20070;-88
2022/09/24 03:41:12;;;;;;;5.30;3.15;;;18.70;67.40;;;;;;6219787;23;20005;-84
2022/09/24 03:43:39;;;;;;;4.93;3.38;;;18.70;67.50;;;;;;6246642;23;20000;-84
2022/09/24 03:46:05;;;;;;;5.78;3.03;;;18.70;67.70;;;;;;6246980;23;20492;-84
2022/09/24 03:48:34;;;;;;;6.15;3.30;;;18.70;67.90;;;;;;6245472;23;19996;-82
2022/09/24 03:51:07;;;;;;;4.80;3.20;;;18.70;68.10;;;;;;6246377;23;20019;-83
2022/09/24 03:53:33;;;;;;;5.45;3.03;;;18.70;68.10;;;;;;6245854;23;20067;-83
2022/09/24 03:56:01;;;;;;;6.78;3.50;;;18.70;68.20;;;;;;6245951;23;20031;-87
2022/09/24 03:58:30;;;;;;;4.00;3.38;;;18.70;68.50;;;;;;6247255;23;20063;-89
2022/09/24 04:00:56;;;;;;;6.53;3.60;;;18.70;68.50;;;;;;6248449;23;20004;-89
2022/09/24 04:03:23;;;;;;;4.55;3.35;;;18.70;68.70;;;;;;6247279;23;20000;-89
2022/09/24 04:05:50;;;;;;;5.43;3.17;;;18.70;68.90;;;;;;6247920;23;20445;-87
2022/09/24 04:08:17;;;;;;;5.40;2.95;;;18.80;69.30;;;;;;6247756;23;19997;-89
2022/09/24 04:10:45;;;;;;;4.45;3.25;;;18.70;69.60;;;;;;6246492;23;20051;-83
2022/09/24 04:13:11;;;;;;;7.90;3.40;;;18.80;69.60;;;;;;6246445;23;20010;-84
2022/09/24 04:15:37;;;;;;;4.72;3.28;;;18.70;69.60;;;;;;6246257;23;20046;-85
2022/09/24 04:18:03;;;;;;;4.72;3.05;;;18.70;69.60;;;;;;6245761;23;20004;-86
2022/09/24 04:20:29;;;;;;;3.38;2.90;;;18.70;69.50;;;;;;6245211;23;20118;-85
2022/09/24 04:22:57;;;;;;;4.47;3.35;;;18.70;69.50;;;;;;6246198;23;20406;-88
2022/09/24 04:25:24;;;;;;;4.10;3.00;;;18.80;70.10;;;;;;6246335;23;20343;-86
2022/09/24 04:27:58;;;;;;;4.32;3.22;;;18.70;69.60;;;;;;6245632;23;20031;-85
2022/09/24 04:30:25;;;;;;;4.82;2.70;;;18.80;69.80;;;;;;6245956;23;20075;-86
2022/09/24 04:32:51;;;;;;;4.05;3.40;;;18.70;69.70;;;;;;6245909;23;20000;-86
2022/09/24 04:35:22;;;;;;;4.00;2.92;;;18.80;69.70;;;;;;6246478;23;20003;-87
2022/09/24 04:37:48;;;;;;;5.80;3.40;;;18.70;69.60;;;;;;6246329;23;20000;-88
2022/09/24 04:40:15;;;;;;;4.20;2.88;;;18.80;69.70;;;;;;6246213;23;20011;-87
2022/09/24 04:42:41;;;;;;;5.60;3.28;;;18.70;69.80;;;;;;6246682;23;20008;-88
2022/09/24 04:45:08;;;;;;;5.10;3.35;;;18.80;69.80;;;;;;6246622;23;20000;-87
2022/09/24 04:47:36;;;;;;;4.55;3.42;;;18.70;69.60;;;;;;6246715;23;20000;-86
2022/09/24 04:50:03;;;;;;;5.15;3.10;;;18.70;69.90;;;;;;6246604;23;20430;-86
2022/09/24 04:52:32;;;;;;;6.00;3.13;;;18.70;70.10;;;;;;6246516;23;20000;-85
2022/09/24 04:54:58;;;;;;;4.75;3.38;;;18.70;70.20;;;;;;6247072;23;20000;-89
2022/09/24 04:57:25;;;;;;;3.88;3.47;;;18.70;70.40;;;;;;6220053;23;20470;-85
2022/09/24 04:59:51;;;;;;;4.15;3.25;;;18.70;70.60;;;;;;6248874;23;20000;-88
2022/09/24 05:02:18;;;;;;;4.95;3.67;;;18.60;70.70;;;;;;6252591;23;20005;-89
2022/09/24 05:04:43;;;;;;;4.85;3.65;;;18.60;71.00;;;;;;6220137;23;20015;-89
2022/09/24 05:07:10;;;;;;;4.68;3.50;;;18.60;71.20;;;;;;6247548;23;20011;-89
2022/09/24 05:09:36;;;;;;;4.47;3.28;;;18.60;71.30;;;;;;6247253;23;20027;-88
2022/09/24 05:12:03;;;;;;;4.47;3.30;;;18.60;71.30;;;;;;6249312;23;20032;-88
2022/09/24 05:14:29;;;;;;;5.95;3.30;;;18.70;71.60;;;;;;6249336;23;19996;-89
2022/09/24 05:16:54;;;;;;;11.70;3.80;;;18.70;71.70;;;;;;6249226;23;20351;-87
2022/09/24 05:19:20;;;;;;;5.68;3.75;;;18.60;71.70;;;;;;6223484;23;20034;-89
2022/09/24 05:21:46;;;;;;;4.43;3.20;;;18.70;72.00;;;;;;6251977;23;20008;-91
2022/09/24 05:24:12;;;;;;;5.18;4.07;;;18.70;72.10;;;;;;6250211;23;20091;-89
2022/09/24 05:29:22;;;;;;;4.25;3.03;;;18.70;72.30;;;;;;6246351;23;20015;-88
2022/09/24 05:31:48;;;;;;;9.45;3.85;;;18.70;72.30;;;;;;6219112;23;20005;-84
2022/09/24 05:34:14;;;;;;;4.13;3.22;;;18.70;72.10;;;;;;6245381;23;20000;-84
2022/09/24 05:36:42;;;;;;;5.15;3.50;;;18.80;72.00;;;;;;6246237;23;20050;-92
2022/09/24 05:39:10;;;;;;;3.97;3.45;;;18.70;72.00;;;;;;6246684;23;20061;-83
2022/09/24 05:41:36;;;;;;;4.38;3.40;;;18.70;72.10;;;;;;6246832;23;20004;-81
2022/09/24 05:44:02;;;;;;;6.85;3.72;;;18.80;72.10;;;;;;6245791;23;20056;-85
2022/09/24 05:46:28;;;;;;;4.15;3.65;;;18.80;72.40;;;;;;6245791;23;20012;-84
2022/09/24 05:48:54;;;;;;;4.05;3.25;;;18.80;71.80;;;;;;6245855;23;20004;-85
2022/09/24 05:51:20;;;;;;;6.05;3.35;;;18.80;71.80;;;;;;6245905;23;20000;-85
2022/09/24 05:53:46;;;;;;;6.68;3.85;;;18.80;71.80;;;;;;6246014;23;20005;-85
2022/09/24 05:56:12;;;;;;;8.13;3.70;;;18.80;71.80;;;;;;6245204;23;20326;-85
2022/09/24 05:58:37;;;;;;;4.35;3.50;;;18.80;71.50;;;;;;6244982;23;20409;-84
2022/09/24 06:01:06;;;;;;;5.63;3.95;;;18.80;71.50;;;;;;6218053;23;20087;-87
2022/09/24 06:03:32;;;;;;;5.18;3.38;;;18.80;71.50;;;;;;6243368;23;20024;-85
2022/09/24 06:06:00;;;;;;;8.95;4.43;;;18.80;71.40;;;;;;6242396;23;20004;-85
2022/09/24 06:08:28;;;;;;;6.80;4.13;;;18.80;71.60;;;;;;6215844;23;20431;-85
2022/09/24 06:11:01;;;;;;;4.57;4.00;;;18.80;71.60;;;;;;6245194;23;20037;-88
2022/09/24 06:13:27;;;;;;;7.38;4.07;;;18.80;71.70;;;;;;6244942;23;20000;-87
2022/09/24 06:16:02;;;;;;;6.03;3.80;;;18.80;71.80;;;;;;6245098;23;20407;-85
2022/09/24 06:18:28;;;;;;;5.38;3.95;;;18.80;71.80;;;;;;6244603;23;20000;-87
2022/09/24 06:20:54;;;;;;;7.03;4.25;;;18.80;71.80;;;;;;6245587;23;19996;-84
2022/09/24 06:23:20;;;;;;;7.13;4.80;;;18.80;71.70;;;;;;6245713;23;20063;-83
2022/09/24 06:25:52;;;;;;;8.38;4.63;;;18.90;72.10;;;;;;6245806;23;20009;-87
2022/09/24 06:28:17;;;;;;;6.03;4.22;;;18.90;71.50;;;;;;6218082;23;20050;-83
2022/09/24 06:30:43;;;;;;;11.45;4.43;;;18.90;71.90;;;;;;6244632;23;20004;-85
2022/09/24 06:33:13;;;;;;;6.45;4.18;;;19.00;71.10;;;;;;6245544;23;20075;-80
2022/09/24 06:35:40;;;;;;;9.15;4.45;;;19.00;71.10;;;;;;6244559;23;20007;-80
2022/09/24 06:38:10;;;;;;;6.70;5.30;;;19.00;71.30;;;;;;6243407;23;20004;-83
2022/09/24 06:40:36;;;;;;;7.50;4.40;;;19.00;70.80;;;;;;6245399;23;20126;-80
2022/09/24 06:43:02;;;;;;;7.32;4.45;;;19.00;70.70;;;;;;6245814;23;20032;-85
2022/09/24 06:45:27;;;;;;;6.78;4.60;;;19.10;70.90;;;;;;6245919;23;20004;-78
2022/09/24 06:47:54;;;;;;;6.78;4.35;;;19.10;70.90;;;;;;6244993;23;20288;-86
2022/09/24 06:50:22;;;;;;;6.70;4.75;;;19.20;70.70;;;;;;6245636;23;20006;-85
2022/09/24 06:52:48;;;;;;;5.70;4.55;;;19.20;70.50;;;;;;6246625;23;20000;-85
2022/09/24 06:55:14;;;;;;;6.45;4.90;;;19.20;70.50;;;;;;6247189;23;20070;-86
2022/09/24 06:57:40;;;;;;;5.97;5.05;;;19.10;69.80;;;;;;6245497;23;20008;-82
2022/09/24 07:00:06;;;;;;;5.72;4.25;;;19.10;70.00;;;;;;6246706;23;20007;-84
2022/09/24 07:02:32;;;;;;;5.78;4.15;;;19.10;70.10;;;;;;6246885;23;20024;-90
2022/09/24 07:04:58;;;;;;;5.30;4.35;;;19.10;70.50;;;;;;6246906;23;20019;-88
2022/09/24 07:07:31;;;;;;;6.15;4.38;;;19.20;70.70;;;;;;6247302;23;20004;-87
2022/09/24 07:10:01;;;;;;;5.15;4.07;;;19.20;70.90;;;;;;6246063;23;20000;-83
2022/09/24 07:12:28;;;;;;;;;;;19.30;71.30;;;;;;6247528;23;20292;-84
2022/09/24 07:14:54;;;;;;;6.13;4.22;;;19.30;70.30;;;;;;6245232;23;19977;-84
2022/09/24 07:17:19;;;;;;;8.63;6.07;;;19.30;71.20;;;;;;6246471;23;20004;-84
2022/09/24 07:19:45;;;;;;;5.68;4.28;;;19.30;70.00;;;;;;6246830;23;20418;-85
2022/09/24 07:22:11;;;;;;;4.65;4.13;;;19.30;70.20;;;;;;6246373;23;20000;-86
2022/09/24 07:24:36;;;;;;;6.15;3.80;;;19.40;70.70;;;;;;6246582;23;20307;-85
2022/09/24 07:27:06;;;;;;;4.43;3.58;;;19.40;70.40;;;;;;6247006;23;20000;-85
2022/09/24 07:29:32;;;;;;;5.10;4.40;;;19.40;70.50;;;;;;6247199;23;20000;-85
2022/09/24 07:31:58;;;;;;;5.38;4.40;;;19.50;70.40;;;;;;6247233;23;20134;-86
2022/09/24 07:34:23;;;;;;;5.75;4.05;;;19.60;70.30;;;;;;6246154;23;20019;-86
2022/09/24 07:36:49;;;;;;;5.78;4.13;;;19.60;70.00;;;;;;6246749;23;20154;-86
2022/09/24 07:39:15;;;;;;;5.22;3.60;;;19.70;70.00;;;;;;6246517;23;20027;-85
2022/09/24 07:41:41;;;;;;;4.97;3.83;;;19.80;70.00;;;;;;6247074;23;20000;-85
2022/09/24 07:44:08;;;;;;;8.02;4.22;;;19.80;70.20;;;;;;6246430;23;20075;-90
2022/09/24 07:46:34;;;;;;;4.97;3.63;;;19.90;70.00;;;;;;6246920;23;20000;-88
2022/09/24 07:49:03;;;;;;;5.22;3.53;;;19.90;70.10;;;;;;6247235;23;20007;-88
2022/09/24 07:51:28;;;;;;;4.55;3.53;;;20.00;70.40;;;;;;6246757;23;20000;-89
2022/09/24 07:53:56;;;;;;;7.10;4.22;;;20.00;70.00;;;;;;6246791;23;20423;-89
2022/09/24 07:56:22;;;;;;;14.05;4.35;;;20.00;69.00;;;;;;6246970;23;20020;-91
2022/09/24 07:58:51;;;;;;;5.07;3.50;;;20.10;69.10;;;;;;6247357;23;20007;-91
2022/09/24 08:01:18;;;;;;;6.22;3.13;;;20.10;68.50;;;;;;6247213;23;20011;-84
2022/09/24 08:03:47;;;;;;;4.88;3.15;;;20.30;68.60;;;;;;6246365;23;20133;-83
2022/09/24 08:06:13;;;;;;;6.00;3.10;;;20.40;68.40;;;;;;6247006;23;20028;-83
2022/09/24 08:08:39;;;;;;;4.88;3.22;;;20.50;68.00;;;;;;6246692;23;20058;-83
2022/09/24 08:11:06;;;;;;;5.78;3.53;;;20.60;67.90;;;;;;6219914;23;20092;-83
2022/09/24 08:13:33;;;;;;;5.53;3.08;;;20.70;67.30;;;;;;6246430;23;20003;-83
2022/09/24 08:16:05;;;;;;;7.80;3.80;;;20.80;67.00;;;;;;6245965;23;20000;-83
2022/09/24 08:18:32;;;;;;;5.28;2.95;;;20.80;65.80;;;;;;6219700;23;20000;-83
2022/09/24 08:21:02;;;;;;;3.80;2.90;;;20.90;66.10;;;;;;6246573;23;20016;-83
2022/09/24 08:23:28;;;;;;;7.93;4.78;;;20.90;66.40;;;;;;6246054;23;20008;-83
2022/09/24 08:25:54;;;;;;;4.00;2.72;;;20.90;64.80;;;;;;6246690;23;20001;-83
2022/09/24 08:28:20;;;;;;;6.60;2.90;;;21.00;65.80;;;;;;6246862;23;19997;-83
2022/09/24 08:30:46;;;;;;;11.90;4.65;;;21.10;65.70;;;;;;6246651;23;20000;-82
2022/09/24 08:33:12;;;;;;;5.55;4.25;;;21.10;63.90;;;;;;6246338;23;20000;-83
2022/09/24 08:35:40;;;;;;;5.47;3.55;;;20.90;64.10;;;;;;6246309;23;20075;-83
2022/09/24 08:38:07;;;;;;;4.70;3.30;;;21.00;64.90;;;;;;6246670;23;20467;-83
2022/09/24 08:40:45;;;;;;;10.38;3.55;;;20.90;64.80;;;;;;6246721;23;20058;-83
2022/09/24 08:43:46;;;;;;;8.02;3.75;;;21.00;65.40;;;;;;6246547;23;20000;-85
2022/09/24 08:49:33;;;;;;;3.20;2.42;;;21.20;64.70;;;;;;6246300;23;20042;-83
2022/09/24 08:52:36;;;;;;;4.45;2.70;;;21.30;65.10;;;;;;6239013;23;20000;-83
2022/09/24 08:55:08;;;;;;;8.10;2.63;;;21.50;64.80;;;;;;6207436;23;20004;-85
2022/09/24 08:57:45;;;;;;;11.70;2.25;;;21.80;64.90;;;;;;6243950;23;20000;-84
2022/09/24 09:00:15;;;;;;;5.05;3.17;;;21.90;64.40;;;;;;6245319;23;20004;-84
2022/09/24 09:03:28;;;;;;;4.47;2.17;;;21.80;60.50;;;;;;6244842;23;20666;-80
2022/09/24 09:06:18;;;;;;;6.47;2.92;;;21.70;61.50;;;;;;6122302;23;20070;-81
2022/09/24 09:09:21;;;;;;;4.13;2.17;;;21.50;60.90;;;;;;6122077;23;20060;-80
2022/09/24 09:12:00;;;;;;;3.50;2.10;;;21.70;61.30;;;;;;6175945;23;20000;-80
2022/09/24 09:14:41;;;;;;;3.13;1.48;;;21.80;61.90;;;;;;6211935;23;20454;-80
2022/09/24 09:17:57;;;;;;;2.38;1.65;;;22.10;62.10;;;;;;6243494;23;20083;-80
2022/09/24 09:20:37;;;;;;;2.45;1.77;;;22.30;61.50;;;;;;6120340;23;20341;-82
2022/09/24 09:23:17;;;;;;;4.13;1.65;;;22.30;62.20;;;;;;6244891;23;20499;-81
2022/09/24 09:25:56;;;;;;;3.55;1.50;;;22.40;61.50;;;;;;6244895;23;20004;-81
2022/09/24 09:28:22;;;;;;;2.97;1.55;;;22.50;61.70;;;;;;6218174;23;20004;-81
2022/09/24 09:31:05;;;;;;;3.25;1.25;;;22.50;60.90;;;;;;6243243;23;20010;-81
2022/09/24 09:33:49;;;;;;;3.13;1.40;;;22.50;61.00;;;;;;6244832;23;20000;-81
2022/09/24 09:36:39;;;;;;;2.22;1.45;;;22.60;60.80;;;;;;6244800;23;20028;-82
2022/09/24 09:39:19;;;;;;;2.08;1.15;;;22.60;61.00;;;;;;6244128;23;20075;-82
2022/09/24 09:42:04;;;;;;;;;;;22.70;61.40;;;;;;6244347;23;20074;-88
2022/09/24 09:44:38;;;;;;;3.03;1.90;;;22.80;61.40;;;;;;6244288;23;19933;-88
2022/09/24 09:47:34;;;;;;;2.78;1.73;;;22.80;59.20;;;;;;6244493;23;20050;-87
2022/09/24 09:50:05;;;;;;;3.15;1.95;;;22.80;59.60;;;;;;6246077;23;20197;-87
2022/09/24 09:52:37;;;;;;;1.58;1.40;;;22.80;60.10;;;;;;6252266;23;20035;-88
2022/09/24 09:55:04;;;;;;;2.65;1.48;;;22.80;59.70;;;;;;6254131;23;19996;-89
2022/09/24 09:57:30;;;;;;;1.50;1.17;;;22.80;60.20;;;;;;6227877;23;20052;-89
2022/09/24 09:59:56;;;;;;;2.53;1.35;;;22.90;60.40;;;;;;6246360;23;20399;-85
2022/09/24 10:02:29;;;;;;;2.60;1.50;;;22.90;60.00;;;;;;6244237;23;20011;-83
2022/09/24 10:04:59;;;;;;;1.75;1.20;;;22.80;58.80;;;;;;6245580;23;20012;-83
2022/09/24 10:07:25;;;;;;;3.90;1.60;;;22.80;59.60;;;;;;6246364;23;20004;-83
2022/09/24 10:10:24;;;;;;;17.60;1.92;;;22.90;60.00;;;;;;6217186;23;20332;-82
2022/09/24 10:13:12;;;;;;;3.58;1.17;;;23.00;60.20;;;;;;6242540;23;20031;-84
2022/09/24 10:15:53;;;;;;;4.47;1.40;;;23.10;60.30;;;;;;6246709;23;20006;-84
2022/09/24 10:18:42;;;;;;;2.83;0.95;;;23.30;60.30;;;;;;6247072;23;20425;-84
2022/09/24 10:21:14;;;;;;;1.30;0.95;;;23.40;60.50;;;;;;6246752;23;20008;-84
2022/09/24 10:23:42;;;;;;;2.40;1.27;;;23.50;59.90;;;;;;6246802;23;20357;-81
2022/09/24 10:26:09;;;;;;;1.73;1.02;;;23.50;60.00;;;;;;6247367;23;21162;-83
2022/09/24 10:31:28;;;;;;;;;;;23.60;60.00;;;;;;6246776;23;20503;-84
2022/09/24 10:33:56;;;;;;;2.92;1.25;;;23.60;60.10;;;;;;6246738;23;19900;-82
2022/09/24 10:36:23;;;;;;;3.25;1.15;;;23.50;60.00;;;;;;6246801;23;20011;-83
2022/09/24 10:39:00;;;;;;;2.35;1.10;;;23.50;60.20;;;;;;6244637;23;20335;-82
2022/09/24 10:41:28;;;;;;;3.10;1.23;;;23.50;60.40;;;;;;6246378;23;20011;-82
2022/09/24 10:43:57;;;;;;;23.88;2.72;;;23.60;60.10;;;;;;6246579;23;20008;-82
2022/09/24 10:46:42;;;;;;;3.65;1.77;;;23.60;59.60;;;;;;6245808;23;20083;-82
2022/09/24 10:49:29;;;;;;;4.72;1.85;;;23.70;59.80;;;;;;6217682;23;20004;-81
2022/09/24 10:52:19;;;;;;;2.38;1.50;;;23.70;59.50;;;;;;6246218;23;20000;-83
2022/09/24 10:54:54;;;;;;;2.00;1.30;;;23.80;59.70;;;;;;6246719;23;19997;-83
2022/09/24 10:57:38;;;;;;;2.72;1.45;;;24.10;58.50;;;;;;6245629;23;20010;-84
2022/09/24 11:00:38;;;;;;;1.90;1.60;;;24.20;58.10;;;;;;6246116;23;20075;-83
2022/09/24 11:03:23;;;;;;;3.35;1.75;;;24.30;56.30;;;;;;6224346;23;20075;-83
2022/09/24 11:06:13;;;;;;;1.63;1.20;;;24.30;56.70;;;;;;6246609;23;20016;-78
2022/09/24 11:09:06;;;;;;;2.75;1.50;;;24.20;57.40;;;;;;6218646;23;20452;-82
2022/09/24 11:11:39;;;;;;;2.05;1.33;;;24.10;57.30;;;;;;6246360;23;20076;-82
2022/09/24 11:14:19;;;;;;;1.50;1.20;;;24.10;58.20;;;;;;6246667;23;20023;-79
2022/09/24 11:16:50;;;;;;;;;;;24.10;57.90;;;;;;6247094;23;20006;-79
2022/09/24 11:19:24;;;;;;;2.25;1.30;;;24.20;58.20;;;;;;6246053;23;19958;-79
2022/09/24 11:22:08;;;;;;;2.13;1.48;;;24.30;58.10;;;;;;6245544;23;20322;-79
2022/09/24 11:24:56;;;;;;;1.85;1.30;;;24.30;57.80;;;;;;6246333;23;20438;-79
2022/09/24 11:27:30;;;;;;;2.08;1.10;;;24.30;57.60;;;;;;6246750;23;20012;-79
2022/09/24 11:30:08;;;;;;;2.75;1.25;;;24.20;57.80;;;;;;6246294;23;20007;-79
2022/09/24 11:32:43;;;;;;;1.48;1.20;;;24.10;58.10;;;;;;6244809;23;20043;-79
2022/09/24 11:35:26;;;;;;;9.55;1.85;;;23.90;57.80;;;;;;6229915;23;20004;-79
2022/09/24 11:38:18;;;;;;;4.00;1.98;;;23.70;57.50;;;;;;6242410;23;20058;-79
2022/09/24 11:41:20;;;;;;;3.90;1.67;;;23.60;58.50;;;;;;6243974;23;20480;-81
2022/09/24 11:43:53;;;;;;;2.00;1.50;;;23.30;58.80;;;;;;6216965;23;20004;-81
2022/09/24 11:46:21;;;;;;;6.93;2.00;;;23.30;59.60;;;;;;6244881;23;20004;-80
2022/09/24 11:49:05;;;;;;;3.85;1.50;;;23.30;59.60;;;;;;6244077;23;20000;-81
2022/09/24 11:52:04;;;;;;;1.27;1.00;;;23.30;60.30;;;;;;6217937;23;20015;-81
2022/09/24 11:54:39;;;;;;;5.00;1.52;;;23.40;60.20;;;;;;6246271;23;20024;-80
2022/09/24 11:57:25;;;;;;;7.28;1.80;;;23.40;60.30;;;;;;6245450;23;20011;-78
2022/09/24 11:59:57;;;;;;;2.35;1.55;;;23.20;58.80;;;;;;6245449;23;20016;-78
2022/09/24 12:02:42;;;;;;;6.20;1.35;;;23.10;59.60;;;;;;6246184;23;20008;-84
2022/09/24 12:05:27;;;;;;;5.40;1.73;;;23.10;60.00;;;;;;6242307;23;20020;-82
2022/09/24 12:08:12;;;;;;;1.60;1.05;;;23.10;60.20;;;;;;6244195;23;20462;-81
2022/09/24 12:10:38;;;;;;;2.63;1.55;;;23.10;60.30;;;;;;6245395;23;20099;-79
2022/09/24 12:13:04;;;;;;;2.72;1.48;;;23.00;60.60;;;;;;6246224;23;20000;-79
2022/09/24 12:15:44;;;;;;;2.40;1.50;;;23.00;60.30;;;;;;6244452;23;20304;-78
2022/09/24 12:18:34;;;;;;;3.95;1.58;;;22.90;60.30;;;;;;6245929;23;20339;-82
2022/09/24 12:21:08;;;;;;;1.75;1.40;;;22.90;60.50;;;;;;6243718;23;20007;-82
2022/09/24 12:23:39;;;;;;;2.08;0.90;;;22.90;60.40;;;;;;6243687;23;20027;-82
2022/09/24 12:26:06;;;;;;;2.80;1.45;;;22.90;60.40;;;;;;6245000;23;20003;-83
2022/09/24 12:35:06;;;;;;;1.83;1.20;;;22.80;60.80;;;;;;6242735;23;20057;-82
2022/09/24 12:37:37;;;;;;;2.55;1.20;;;22.70;61.20;;;;;;6245357;22;20011;-78
2022/09/24 12:40:36;;;;;;;1.73;1.17;;;22.70;61.30;;;;;;6245019;23;20043;-79
2022/09/24 12:43:24;;;;;;;4.00;1.35;;;22.80;62.20;;;;;;6244569;23;20007;-81
2022/09/24 12:46:03;;;;;;;1.77;1.25;;;22.70;61.90;;;;;;6245045;23;20008;-84
2022/09/24 12:48:34;;;;;;;4.50;1.45;;;22.70;61.70;;;;;;6245350;23;20007;-84
2022/09/24 12:51:03;;;;;;;2.10;1.23;;;22.60;61.10;;;;;;6243368;23;20011;-82
2022/09/24 12:53:41;;;;;;;4.68;1.55;;;22.40;62.10;;;;;;6242457;23;20001;-82
2022/09/24 12:56:08;;;;;;;1.67;1.20;;;22.00;62.50;;;;;;6243722;23;20078;-82
2022/09/24 12:58:37;;;;;;;1.92;1.50;;;22.00;62.80;;;;;;6243811;23;20031;-83
2022/09/24 13:01:10;;;;;;;2.28;1.30;;;21.90;63.40;;;;;;6242800;23;20076;-84
2022/09/24 13:03:39;;;;;;;1.40;1.00;;;22.00;64.40;;;;;;6242299;23;20012;-83
2022/09/24 13:06:22;;;;;;;3.05;1.20;;;21.90;63.80;;;;;;6242724;23;19996;-83
2022/09/24 13:08:49;;;;;;;1.77;1.17;;;22.00;65.30;;;;;;6244064;23;20059;-83
2022/09/24 13:11:25;;;;;;;4.55;1.70;;;22.00;65.00;;;;;;6242659;23;20000;-83
2022/09/24 13:14:20;;;;;;;3.13;1.50;;;22.00;67.00;;;;;;6243065;23;20122;-83
2022/09/24 13:16:49;;;;;;;3.83;1.40;;;21.90;67.10;;;;;;6240318;23;20061;-83
2022/09/24 13:19:39;;;;;;;2.45;1.90;;;22.00;68.70;;;;;;6243883;23;20062;-84
2022/09/24 13:22:06;;;;;;;;;;;21.80;68.20;;;;;;6243250;23;20431;-85
2022/09/24 13:24:50;;;;;;;4.00;1.70;;;21.80;69.00;;;;;;6242585;23;19950;-84
2022/09/24 13:27:38;;;;;;;2.38;1.63;;;21.80;69.60;;;;;;6243751;23;20001;-84
2022/09/24 13:30:18;;;;;;;3.05;1.92;;;21.70;70.50;;;;;;6245593;23;20431;-84